Disclaimer

Please do not use the information listed here in-flight or in-navigation, as they are not provided to us by the airports but are provided by volunteers, so they might be outdated.

Search


Regions


Airport information page

Radio informations:
Tower (TWR) - 118.8 MHz
OPS - 121.15 MHz
Ground (GND) - 121.8 MHz
Approach (APP) - 132.5 MHz

Airport informations:
Latitude: 22° 55' 56.46" S
Longitude: 043° 43' 08.73" W
Elevation: 10 feet - 3 meters
Operating hours: N/A
Operating agency: Military
Timezone: UTC-3(-2DT)
Fuel: Jet A1, without icing nhibitor.

Runway information:
05/23 - 8986 x 148 feet< - >2739 x 45 meters

Recent METARs:
SBSC 202000Z 12004KT 5000 -RA BR FEW006 OVC040 20/17 Q1019
SBSC 202000Z 12004KT 5000 -RA BR FEW006 OVC040 20/17 Q1019
SBSC 202100Z 10002KT 5000 -RA BR SCT006 OVC040 20/18 Q1019

Airport on the map: